Time;durP1;ratioP1;P1;durP2;ratioP2;P2;SDS_P1;SDS_P2;PMS_P1;PMS_P2;Temp;Humidity;BMP_temperature;BMP_pressure;BME280_temperature;BME280_humidity;BME280_pressure;Samples;Min_cycle;Max_cycle;Signal;HPM_P1;HPM_P2
2021/12/31 00:00:00;;;;;;;7.20;3.47;;;;;;;12.25;81.85;101691.84;10456054;28;20056;-83
2021/12/31 00:05:00;;;;;;;7.47;2.28;;;;;;;12.26;81.31;101688.38;10451867;28;20039;-83
2021/12/31 00:10:01;;;;;;;11.70;2.30;;;;;;;12.22;81.33;101686.41;10430100;28;20037;-83
2021/12/31 00:15:03;;;;;;;6.80;2.45;;;;;;;12.37;80.35;101681.09;10449649;28;20037;-82
2021/12/31 00:20:05;;;;;;;8.02;2.85;;;;;;;12.34;80.58;101679.22;10469564;28;20105;-82
2021/12/31 00:25:06;;;;;;;9.63;2.67;;;;;;;12.28;80.40;101672.75;10457456;28;20025;-82
2021/12/31 00:30:07;;;;;;;8.20;2.53;;;;;;;12.19;80.98;101679.31;10441739;28;20028;-82
2021/12/31 00:35:08;;;;;;;6.35;2.35;;;;;;;12.11;81.42;101677.97;10461007;28;20153;-83
2021/12/31 00:40:12;;;;;;;8.00;3.58;;;;;;;12.12;80.63;101671.91;10444660;28;20416;-82
2021/12/31 00:45:15;;;;;;;7.25;3.13;;;;;;;12.07;81.10;101682.97;10460543;28;20135;-83
2021/12/31 00:50:15;;;;;;;5.00;2.70;;;;;;;12.08;81.07;101688.31;10433717;28;20047;-83
2021/12/31 00:55:16;;;;;;;5.43;2.38;;;;;;;12.09;80.38;101686.56;10459774;28;20040;-80
2021/12/31 01:00:16;;;;;;;5.78;2.42;;;;;;;11.95;81.24;101694.56;10458417;28;20035;-80
2021/12/31 01:05:17;;;;;;;6.85;2.97;;;;;;;11.99;81.39;101691.28;10473418;28;20033;-81
2021/12/31 01:10:18;;;;;;;5.45;2.80;;;;;;;12.01;81.28;101694.94;10465465;28;20055;-81
2021/12/31 01:15:41;;;;;;;7.15;3.15;;;;;;;12.07;80.27;101694.38;10459350;28;20021;-82
2021/12/31 01:20:42;;;;;;;4.75;2.47;;;;;;;12.07;80.49;101696.09;10461575;28;20051;-82
2021/12/31 01:25:43;;;;;;;4.53;2.90;;;;;;;12.10;80.00;101706.75;10457660;28;20128;-81
2021/12/31 01:30:43;;;;;;;7.88;2.80;;;;;;;12.06;80.27;101704.78;10467680;28;20041;-81
2021/12/31 01:35:44;;;;;;;5.90;2.33;;;;;;;12.09;79.78;101700.63;10453318;28;20063;-81
2021/12/31 01:40:44;;;;;;;10.60;3.05;;;;;;;12.17;79.65;101696.69;10432925;28;20044;-81
2021/12/31 01:45:55;;;;;;;3.20;2.20;;;;;;;12.24;79.37;101689.16;10460792;28;20033;-80
2021/12/31 01:50:55;;;;;;;9.27;3.47;;;;;;;12.31;78.82;101697.41;10444564;28;20036;-81
2021/12/31 01:55:57;;;;;;;8.63;2.78;;;;;;;12.19;79.39;101702.00;10464454;28;20048;-81
2021/12/31 02:01:03;;;;;;;4.80;2.13;;;;;;;12.13;79.36;101697.34;10475093;28;20024;-81
2021/12/31 02:06:04;;;;;;;10.63;4.25;;;;;;;12.15;79.62;101700.94;10482765;28;20114;-81
2021/12/31 02:11:05;;;;;;;9.20;2.13;;;;;;;12.17;79.26;101699.31;10466739;28;20036;-81
2021/12/31 02:16:05;;;;;;;6.32;2.40;;;;;;;12.02;79.72;101691.50;10454754;28;20059;-81
2021/12/31 02:21:10;;;;;;;8.43;2.13;;;;;;;12.05;79.23;101693.38;10469833;28;20477;-81
2021/12/31 02:26:11;;;;;;;4.07;2.97;;;;;;;12.13;79.35;101701.66;10459278;28;20534;-81
2021/12/31 02:31:11;;;;;;;6.95;2.28;;;;;;;12.13;79.29;101697.34;10439595;28;20115;-81
2021/12/31 02:36:12;;;;;;;4.60;1.88;;;;;;;12.08;79.28;101685.69;10432432;28;20435;-81
2021/12/31 02:41:12;;;;;;;5.63;2.40;;;;;;;12.12;79.06;101697.22;10454881;28;20033;-82
2021/12/31 02:46:13;;;;;;;5.05;2.95;;;;;;;12.10;79.23;101684.06;10462265;28;20037;-81
2021/12/31 02:51:13;;;;;;;17.38;3.58;;;;;;;12.12;79.25;101681.50;10443645;28;20056;-82
2021/12/31 02:56:16;;;;;;;3.33;2.05;;;;;;;12.18;78.71;101679.19;10448962;28;20060;-81
2021/12/31 03:01:17;;;;;;;6.97;2.38;;;;;;;12.19;79.21;101676.69;10449431;28;20047;-81
2021/12/31 03:06:17;;;;;;;7.25;1.90;;;;;;;12.13;78.89;101667.56;10432364;28;20032;-81
2021/12/31 03:11:19;;;;;;;5.15;2.17;;;;;;;12.09;79.05;101663.88;10426262;28;20029;-81
2021/12/31 03:16:20;;;;;;;3.80;2.10;;;;;;;12.08;79.58;101669.03;10431205;28;20029;-81
2021/12/31 03:21:22;;;;;;;4.73;1.93;;;;;;;12.14;78.92;101664.09;10475091;28;20044;-81
2021/12/31 03:26:22;;;;;;;9.25;2.88;;;;;;;12.13;78.79;101657.97;10452522;28;20389;-80
2021/12/31 03:31:23;;;;;;;8.18;2.08;;;;;;;12.08;79.18;101658.53;10460568;28;20023;-81
2021/12/31 03:36:23;;;;;;;7.65;3.60;;;;;;;11.92;79.57;101659.41;10465210;28;20139;-81
2021/12/31 03:41:24;;;;;;;8.55;3.58;;;;;;;11.77;80.25;101648.94;10456974;28;20031;-81
2021/12/31 03:46:25;;;;;;;9.07;2.95;;;;;;;11.65;80.21;101650.06;10455645;28;20063;-81
2021/12/31 03:51:25;;;;;;;6.47;2.92;;;;;;;11.60;80.73;101656.78;10449987;28;20124;-81
2021/12/31 03:56:30;;;;;;;5.72;2.75;;;;;;;11.56;80.54;101658.34;10450159;28;20448;-81
2021/12/31 04:01:31;;;;;;;10.15;1.90;;;;;;;11.67;80.43;101650.19;10456979;28;20086;-80
2021/12/31 04:06:31;;;;;;;8.45;2.47;;;;;;;11.64;80.66;101640.41;10455473;28;20404;-81
2021/12/31 04:11:32;;;;;;;5.72;2.17;;;;;;;11.66;79.99;101643.13;10443961;28;20110;-80
2021/12/31 04:16:32;;;;;;;8.88;2.25;;;;;;;11.46;80.62;101641.19;10451661;28;20063;-80
2021/12/31 04:21:34;;;;;;;6.97;2.60;;;;;;;11.21;81.44;101644.13;10461950;28;20444;-80
2021/12/31 04:26:34;;;;;;;5.35;1.90;;;;;;;11.18;81.71;101643.03;10468279;28;20025;-81
2021/12/31 04:31:35;;;;;;;4.65;1.98;;;;;;;11.10;82.46;101640.88;10451154;28;20025;-81
2021/12/31 04:36:35;;;;;;;7.95;3.15;;;;;;;11.31;81.77;101653.41;10465626;28;20191;-81
2021/12/31 04:41:36;;;;;;;10.45;3.33;;;;;;;11.33;81.81;101658.75;10455795;28;20061;-82
2021/12/31 04:46:36;;;;;;;5.50;2.67;;;;;;;11.33;82.11;101661.38;10458533;28;20082;-82
2021/12/31 04:51:37;;;;;;;5.22;1.98;;;;;;;11.33;81.69;101658.75;10465628;28;20028;-82
2021/12/31 04:56:37;;;;;;;6.45;2.50;;;;;;;11.44;81.41;101642.81;10471375;28;20053;-82
2021/12/31 05:01:38;;;;;;;8.45;3.55;;;;;;;11.43;81.62;101642.75;10442247;28;20032;-82
2021/12/31 05:06:38;;;;;;;7.43;2.15;;;;;;;11.50;80.73;101652.75;10476087;28;20511;-82
2021/12/31 05:11:39;;;;;;;3.25;1.92;;;;;;;11.48;81.16;101645.59;10434321;28;20481;-82
2021/12/31 05:16:39;;;;;;;12.18;2.65;;;;;;;11.37;81.79;101650.25;10441731;28;20079;-82
2021/12/31 05:21:40;;;;;;;5.38;3.08;;;;;;;11.38;81.70;101644.19;10456463;28;20385;-82
2021/12/31 05:26:40;;;;;;;9.38;2.05;;;;;;;11.44;81.28;101642.81;10461155;28;20072;-81
2021/12/31 05:31:41;;;;;;;7.95;2.75;;;;;;;11.39;81.21;101632.91;10455571;28;20025;-81
2021/12/31 05:36:41;;;;;;;8.10;2.50;;;;;;;11.25;81.49;101635.63;10466173;28;20079;-81
2021/12/31 05:41:42;;;;;;;3.78;2.00;;;;;;;11.17;81.66;101639.53;10457738;28;20159;-82
2021/12/31 05:46:47;;;;;;;9.15;2.30;;;;;;;11.03;81.89;101623.00;10492181;28;20036;-82
2021/12/31 05:51:50;;;;;;;6.80;2.42;;;;;;;10.83;82.70;101630.59;10451271;28;20573;-82
2021/12/31 05:56:51;;;;;;;8.80;2.23;;;;;;;10.87;82.05;101637.81;10459066;28;20068;-83
2021/12/31 06:01:51;;;;;;;7.43;2.80;;;;;;;10.75;82.78;101636.22;10456045;28;20428;-82
2021/12/31 06:06:52;;;;;;;7.80;2.42;;;;;;;10.60;83.20;101641.41;10450993;28;20071;-82
2021/12/31 06:11:53;;;;;;;6.63;2.63;;;;;;;10.52;83.35;101634.00;10432975;28;20465;-82
2021/12/31 06:16:53;;;;;;;5.53;2.45;;;;;;;10.47;83.13;101624.97;10453994;28;20436;-80
2021/12/31 06:21:54;;;;;;;8.23;4.32;;;;;;;10.46;83.10;101617.94;10419286;28;20132;-80
2021/12/31 06:26:55;;;;;;;8.77;4.50;;;;;;;10.26;83.49;101619.34;10459977;28;20061;-82
2021/12/31 06:31:55;;;;;;;6.65;2.05;;;;;;;10.25;84.02;101625.38;10467880;28;20039;-81
2021/12/31 06:36:56;;;;;;;5.75;2.60;;;;;;;10.13;84.55;101615.03;10448347;28;20409;-81
2021/12/31 06:41:57;;;;;;;6.63;4.25;;;;;;;10.18;84.16;101615.34;10436414;28;20112;-81
2021/12/31 06:46:57;;;;;;;14.13;8.63;;;;;;;10.05;84.82;101624.13;10450156;28;20067;-81
2021/12/31 06:51:58;;;;;;;3.80;2.33;;;;;;;10.16;84.16;101617.84;10455319;28;20071;-82
2021/12/31 06:56:58;;;;;;;16.45;8.82;;;;;;;10.08;84.68;101624.31;10443439;28;20017;-81
2021/12/31 07:01:59;;;;;;;11.75;5.20;;;;;;;9.91;84.88;101626.78;10459083;28;20441;-79
2021/12/31 07:06:59;;;;;;;5.88;3.38;;;;;;;9.84;85.27;101627.22;10438649;28;20045;-83
2021/12/31 07:12:00;;;;;;;9.68;4.03;;;;;;;9.83;85.24;101635.88;10449731;28;20090;-82
2021/12/31 07:17:02;;;;;;;6.53;3.92;;;;;;;9.83;85.39;101642.00;10444734;28;20384;-82
2021/12/31 07:22:02;;;;;;;;;;;;;;;9.84;85.18;101633.38;10451754;28;20376;-82
2021/12/31 07:27:03;;;;;;;10.18;4.03;;;;;;;9.89;84.95;101633.63;10483279;28;19924;-82
2021/12/31 07:32:04;;;;;;;7.35;3.78;;;;;;;9.77;85.08;101632.88;10435816;28;20481;-82
2021/12/31 07:37:04;;;;;;;6.18;3.15;;;;;;;9.73;85.64;101641.31;10447660;28;20136;-82
2021/12/31 07:42:05;;;;;;;7.82;4.05;;;;;;;9.86;84.67;101638.69;10446152;28;20117;-80
2021/12/31 07:47:06;;;;;;;8.52;3.33;;;;;;;9.81;84.88;101642.72;10459718;28;20028;-81
2021/12/31 07:52:06;;;;;;;4.57;3.03;;;;;;;9.89;84.50;101651.06;10454116;28;20040;-81
2021/12/31 07:57:07;;;;;;;6.40;3.22;;;;;;;9.93;84.18;101655.66;10453377;28;20024;-81
2021/12/31 08:02:08;;;;;;;8.25;3.95;;;;;;;9.99;83.70;101654.31;10450545;28;20506;-81
2021/12/31 08:07:08;;;;;;;5.25;2.97;;;;;;;9.98;83.44;101643.78;10453155;28;20123;-83
2021/12/31 08:12:09;;;;;;;11.98;3.25;;;;;;;9.97;83.46;101644.59;10441092;28;20049;-83
2021/12/31 08:17:09;;;;;;;6.60;3.22;;;;;;;10.09;82.70;101658.44;10450331;28;20497;-82
2021/12/31 08:22:11;;;;;;;8.80;2.95;;;;;;;10.15;82.55;101663.13;10453732;28;20060;-84
2021/12/31 08:27:11;;;;;;;6.50;2.70;;;;;;;10.13;82.45;101669.97;10476512;28;20384;-84
2021/12/31 08:32:12;;;;;;;4.88;2.95;;;;;;;10.09;82.84;101689.81;10421946;28;20067;-82
2021/12/31 08:37:13;;;;;;;5.55;3.75;;;;;;;10.14;82.74;101696.25;10432022;28;20082;-81
2021/12/31 08:42:13;;;;;;;9.50;4.03;;;;;;;10.23;82.16;101682.81;10442733;28;20065;-81
2021/12/31 08:47:14;;;;;;;9.07;4.22;;;;;;;10.29;81.96;101690.16;10443524;28;20025;-81
2021/12/31 08:52:14;;;;;;;25.83;16.95;;;;;;;10.52;81.01;101675.88;10455519;28;20112;-84
2021/12/31 08:57:15;;;;;;;5.43;3.33;;;;;;;10.67;80.95;101686.41;10458724;28;20358;-83
2021/12/31 09:02:15;;;;;;;7.05;4.25;;;;;;;10.80;79.58;101674.03;10451931;28;20041;-82
2021/12/31 09:07:16;;;;;;;8.43;4.70;;;;;;;10.84;79.36;101673.41;10458733;28;20124;-80
2021/12/31 09:12:16;;;;;;;6.00;3.70;;;;;;;10.80;79.58;101674.03;10458281;28;20059;-81
2021/12/31 09:17:17;;;;;;;4.78;2.30;;;;;;;10.76;79.27;101662.47;10459580;28;20430;-82
2021/12/31 09:22:17;;;;;;;5.43;2.85;;;;;;;10.78;79.74;101673.94;10459440;28;20061;-86
2021/12/31 09:27:18;;;;;;;6.28;2.63;;;;;;;10.89;79.42;101676.28;10425963;28;20073;-83
2021/12/31 09:32:19;;;;;;;4.45;2.13;;;;;;;11.02;78.36;101660.50;10475358;28;20080;-82
2021/12/31 09:37:20;;;;;;;5.18;2.33;;;;;;;11.04;77.95;101664.09;10441631;28;20036;-85
2021/12/31 09:42:21;;;;;;;5.40;2.58;;;;;;;11.09;78.43;101669.63;10455436;28;20450;-86
2021/12/31 09:47:21;;;;;;;27.83;11.00;;;;;;;11.21;78.25;101691.31;10455595;28;20045;-87
2021/12/31 09:52:21;;;;;;;7.40;3.10;;;;;;;11.38;78.06;101691.38;10457474;28;20064;-86
2021/12/31 09:57:22;;;;;;;5.75;2.72;;;;;;;11.45;77.38;101720.63;10475546;28;20021;-83
2021/12/31 10:02:33;;;;;;;5.18;2.30;;;;;;;11.37;78.17;101713.16;10441678;28;20064;-84
2021/12/31 10:07:34;;;;;;;4.45;2.58;;;;;;;11.52;77.06;101711.41;10472845;28;20048;-85
2021/12/31 10:12:56;;;;;;;9.33;2.33;;;;;;;11.49;77.17;101692.88;10473817;28;20040;-82
2021/12/31 10:17:56;;;;;;;8.30;2.60;;;;;;;11.64;76.88;101678.84;10473064;28;20021;-82
2021/12/31 10:23:14;;;;;;;4.53;2.10;;;;;;;11.94;75.02;101671.75;10472028;28;20311;-82
2021/12/31 10:28:16;;;;;;;6.03;2.55;;;;;;;12.04;74.05;101678.47;10451889;28;20029;-80
2021/12/31 10:33:16;;;;;;;4.80;1.98;;;;;;;11.84;74.89;101695.69;10453307;28;20024;-82
2021/12/31 10:38:16;;;;;;;3.58;1.77;;;;;;;11.74;75.36;101647.97;10454243;28;20405;-83
2021/12/31 10:43:22;;;;;;;4.03;2.05;;;;;;;11.60;75.99;101648.91;10415695;28;20072;-82
2021/12/31 10:48:42;;;;;;;3.75;1.90;;;;;;;11.56;75.97;101628.59;10437701;28;20036;-83
2021/12/31 10:53:54;;;;;;;4.28;1.92;;;;;;;11.61;76.21;101624.50;10455255;28;20025;-80
2021/12/31 10:58:58;;;;;;;3.90;1.70;;;;;;;11.73;75.96;101661.88;10454463;28;20477;-81
2021/12/31 11:03:59;;;;;;;5.68;2.35;;;;;;;11.98;74.73;101663.25;10447427;28;20025;-80
2021/12/31 11:09:05;;;;;;;16.27;9.52;;;;;;;12.16;74.15;101657.22;10454200;28;20057;-81
2021/12/31 11:14:06;;;;;;;4.85;2.17;;;;;;;12.25;74.00;101656.84;10452915;28;20029;-82
2021/12/31 11:19:10;;;;;;;4.10;1.60;;;;;;;12.51;72.52;101646.81;10452250;28;20483;-82
2021/12/31 11:24:34;;;;;;;6.60;1.77;;;;;;;12.75;72.41;101647.16;10452381;28;20040;-82
2021/12/31 11:29:36;;;;;;;2.75;1.65;;;;;;;13.02;72.06;101628.34;10470727;28;20413;-81
2021/12/31 11:34:37;;;;;;;3.10;1.38;;;;;;;14.60;66.42;101643.59;10454284;28;20385;-81
2021/12/31 11:39:40;;;;;;;2.93;2.10;;;;;;;13.82;68.17;101644.50;10453502;28;20052;-82
2021/12/31 11:45:02;;;;;;;4.20;2.00;;;;;;;13.10;70.89;101639.25;10452335;28;20044;-82
2021/12/31 11:50:22;;;;;;;3.13;1.52;;;;;;;13.11;70.91;101620.94;10470143;28;20035;-80
2021/12/31 11:55:23;;;;;;;4.05;1.90;;;;;;;13.23;71.09;101631.16;10453837;28;20031;-81
2021/12/31 12:00:25;;;;;;;6.07;2.67;;;;;;;12.80;72.27;101645.66;10477501;28;20468;-82
2021/12/31 12:05:45;;;;;;;3.22;1.60;;;;;;;12.57;72.92;101637.50;10432881;28;20033;-84
2021/12/31 12:10:45;;;;;;;3.80;1.92;;;;;;;12.54;73.61;101624.22;10450331;28;20090;-86
2021/12/31 12:15:46;;;;;;;3.30;1.88;;;;;;;12.38;73.67;101613.75;10455008;28;20064;-88
2021/12/31 12:20:50;;;;;;;8.13;1.42;;;;;;;12.22;74.29;101584.06;10451930;28;20028;-88
2021/12/31 12:25:50;;;;;;;5.15;1.77;;;;;;;12.64;73.33;101588.84;10450811;28;20029;-88
2021/12/31 12:31:00;;;;;;;5.78;1.75;;;;;;;15.03;65.39;101554.03;10451183;28;20048;-88
2021/12/31 12:36:00;;;;;;;4.22;1.55;;;;;;;14.72;66.05;101545.78;10442086;28;20432;-87
2021/12/31 12:41:09;;;;;;;4.15;1.38;;;;;;;14.15;68.03;101561.72;10442952;28;20043;-88
2021/12/31 12:46:12;;;;;;;2.72;1.45;;;;;;;14.64;66.91;101548.03;10471291;28;20037;-86
2021/12/31 12:51:14;;;;;;;3.38;1.58;;;;;;;13.84;68.84;101560.38;10500778;28;20035;-86
2021/12/31 12:56:16;;;;;;;3.40;1.90;;;;;;;13.43;70.72;101560.28;10499952;28;20166;-87
2021/12/31 13:01:17;;;;;;;5.00;1.90;;;;;;;13.56;70.40;101560.00;10501987;28;20025;-86
2021/12/31 13:06:18;;;;;;;9.25;1.73;;;;;;;14.18;68.78;101546.06;10461661;28;20032;-86
2021/12/31 13:11:19;;;;;;;4.47;2.15;;;;;;;15.77;64.55;101556.88;10473661;28;20106;-87
2021/12/31 13:16:19;;;;;;;4.25;1.80;;;;;;;15.90;62.68;101565.28;10459048;28;20060;-86
2021/12/31 13:21:21;;;;;;;5.55;2.10;;;;;;;14.59;66.51;101569.78;10457797;28;20481;-83
2021/12/31 13:26:29;;;;;;;4.28;2.08;;;;;;;14.03;69.48;101575.25;10490760;28;20388;-81
2021/12/31 13:31:38;;;;;;;3.55;1.80;;;;;;;13.88;69.92;101599.13;10441306;28;20040;-83
2021/12/31 13:36:52;;;;;;;3.75;1.83;;;;;;;13.69;70.57;101607.94;10458896;28;20072;-83
2021/12/31 13:42:02;;;;;;;8.70;2.00;;;;;;;14.27;69.72;101614.03;10441945;28;20025;-82
2021/12/31 13:47:13;;;;;;;8.60;2.58;;;;;;;15.19;67.17;101621.47;10446121;28;20029;-81
2021/12/31 13:52:31;;;;;;;3.75;2.17;;;;;;;15.73;64.45;101635.88;10467467;28;20657;-81
2021/12/31 13:57:32;;;;;;;6.63;2.45;;;;;;;15.65;63.91;101635.56;10453615;28;20013;-81
2021/12/31 14:02:32;;;;;;;7.63;3.28;;;;;;;15.07;66.36;101640.31;10469113;28;20119;-82
2021/12/31 14:07:41;;;;;;;2.83;2.03;;;;;;;14.28;68.54;101644.81;10476792;28;20070;-81
2021/12/31 14:12:55;;;;;;;4.55;2.08;;;;;;;13.79;70.10;101655.78;10443180;28;20880;-80
2021/12/31 14:17:56;;;;;;;5.30;2.47;;;;;;;13.43;71.31;101652.28;10461920;28;20098;-81
2021/12/31 14:22:57;;;;;;;7.40;2.42;;;;;;;13.12;72.78;101654.28;10453363;28;20047;-80
2021/12/31 14:27:57;;;;;;;6.25;3.58;;;;;;;12.95;72.85;101668.28;10435732;28;20021;-80
2021/12/31 14:32:58;;;;;;;13.70;5.32;;;;;;;12.86;73.39;101684.50;10489103;28;20043;-81
2021/12/31 14:38:00;;;;;;;6.35;3.05;;;;;;;12.71;74.41;101695.09;10470302;28;20056;-82
2021/12/31 14:43:00;;;;;;;7.90;3.28;;;;;;;12.53;75.90;101695.94;10430519;28;20041;-84
2021/12/31 14:48:03;;;;;;;4.50;2.50;;;;;;;12.48;75.32;101686.91;10424385;28;20464;-83
2021/12/31 14:53:04;;;;;;;5.68;2.53;;;;;;;12.39;75.98;101712.69;10488069;28;20029;-82
2021/12/31 14:58:04;;;;;;;7.25;3.15;;;;;;;12.36;76.19;101725.63;10452612;28;20072;-83
2021/12/31 15:03:05;;;;;;;5.03;2.53;;;;;;;12.33;76.39;101735.16;10487740;28;20083;-83
2021/12/31 15:08:05;;;;;;;4.75;2.92;;;;;;;12.27;76.43;101732.19;10454602;28;20071;-82
2021/12/31 15:13:06;;;;;;;6.80;3.30;;;;;;;12.22;77.19;101749.41;10454021;28;20055;-82
2021/12/31 15:18:06;;;;;;;7.47;3.72;;;;;;;12.28;77.37;101746.22;10454205;28;20040;-83
2021/12/31 15:23:07;;;;;;;6.93;3.13;;;;;;;12.30;77.24;101742.84;10420666;28;20428;-82
2021/12/31 15:28:07;;;;;;;9.00;3.45;;;;;;;12.28;77.69;101746.22;10458199;28;20091;-83
2021/12/31 15:33:08;;;;;;;9.95;3.42;;;;;;;12.32;77.92;101756.97;10452932;28;20112;-83
2021/12/31 15:38:08;;;;;;;8.70;3.50;;;;;;;12.32;77.62;101754.34;10452600;28;20043;-82
2021/12/31 15:43:09;;;;;;;5.57;3.75;;;;;;;12.29;78.24;101756.81;10454663;28;20400;-83
2021/12/31 15:48:12;;;;;;;6.93;3.53;;;;;;;12.30;78.53;101766.47;10435395;28;20061;-82
2021/12/31 15:53:13;;;;;;;6.57;3.05;;;;;;;12.29;78.43;101772.53;10453845;28;20091;-81
2021/12/31 15:58:13;;;;;;;6.03;4.03;;;;;;;12.29;78.57;101783.03;10452167;28;20056;-82
2021/12/31 16:03:14;;;;;;;8.45;3.78;;;;;;;12.23;78.63;101782.72;10452172;28;20059;-82
2021/12/31 16:08:14;;;;;;;12.40;4.05;;;;;;;12.18;79.58;101781.53;10452262;28;20028;-82
2021/12/31 16:13:15;;;;;;;8.25;3.85;;;;;;;12.03;80.43;101790.38;10433810;28;20075;-81
2021/12/31 16:18:15;;;;;;;7.38;5.55;;;;;;;11.88;81.91;101793.00;10485983;28;20118;-81
2021/12/31 16:23:16;;;;;;;7.10;5.55;;;;;;;11.82;81.96;101792.66;10457729;28;20105;-80
2021/12/31 16:28:16;;;;;;;8.88;4.53;;;;;;;11.74;82.45;101799.19;10477350;28;20434;-82
2021/12/31 16:33:17;;;;;;;13.95;5.30;;;;;;;11.72;82.39;101801.69;10468039;28;20091;-82
2021/12/31 16:38:17;;;;;;;10.50;5.10;;;;;;;11.72;83.07;101808.69;10435039;28;20077;-83
2021/12/31 16:43:18;;;;;;;12.65;5.63;;;;;;;11.64;83.46;101807.31;10436270;28;20396;-83
2021/12/31 16:48:20;;;;;;;8.82;4.85;;;;;;;11.60;83.88;101806.22;10452451;28;20485;-82
2021/12/31 16:53:20;;;;;;;7.33;5.97;;;;;;;11.55;83.82;101812.91;10451126;28;20094;-83
2021/12/31 16:58:21;;;;;;;7.65;6.20;;;;;;;11.50;84.42;101825.78;10466813;28;20163;-83
2021/12/31 17:03:21;;;;;;;13.32;7.00;;;;;;;11.46;84.25;101819.44;10451982;28;20072;-83
2021/12/31 17:08:22;;;;;;;10.13;6.57;;;;;;;11.32;84.87;101838.66;10453245;28;20063;-82
2021/12/31 17:13:22;;;;;;;8.30;6.15;;;;;;;11.32;85.05;101843.91;10454564;28;20060;-82
2021/12/31 17:18:23;;;;;;;9.85;6.75;;;;;;;11.29;84.98;101852.50;10450696;28;20507;-83
2021/12/31 17:23:23;;;;;;;9.95;7.82;;;;;;;11.35;84.75;101857.19;10451830;28;20025;-83
2021/12/31 17:28:24;;;;;;;14.02;7.05;;;;;;;11.32;85.25;101859.63;10458775;28;20084;-82
2021/12/31 17:33:24;;;;;;;10.40;7.10;;;;;;;11.28;85.08;101860.25;10459331;28;20554;-81
2021/12/31 17:38:25;;;;;;;12.70;7.15;;;;;;;11.31;85.03;101870.94;10458705;28;20076;-82
2021/12/31 17:43:26;;;;;;;8.50;6.65;;;;;;;11.31;84.95;101877.09;10491925;28;20037;-84
2021/12/31 17:48:27;;;;;;;11.32;6.68;;;;;;;11.33;85.38;101884.16;10460347;28;20063;-83
2021/12/31 17:53:27;;;;;;;14.50;7.70;;;;;;;11.38;84.88;101893.19;10458557;28;20028;-84
2021/12/31 17:58:28;;;;;;;12.75;6.45;;;;;;;11.39;84.65;101897.63;10459007;28;20116;-82
2021/12/31 18:03:30;;;;;;;8.77;6.15;;;;;;;11.40;84.94;101895.06;10459290;28;20389;-85
2021/12/31 18:08:31;;;;;;;8.35;5.28;;;;;;;11.43;84.70;101897.88;10457296;28;20086;-82
2021/12/31 18:13:31;;;;;;;9.63;7.75;;;;;;;11.42;84.38;101924.03;10455664;28;20496;-82
2021/12/31 18:18:32;;;;;;;12.02;7.35;;;;;;;11.25;85.27;101944.84;10467061;28;20033;-82
2021/12/31 18:23:32;;;;;;;12.40;6.55;;;;;;;11.35;85.31;101963.78;10457125;28;20057;-82
2021/12/31 18:28:33;;;;;;;13.07;6.03;;;;;;;11.40;85.42;101962.34;10454957;28;20039;-83
2021/12/31 18:33:33;;;;;;;9.43;5.88;;;;;;;11.46;84.66;101963.59;10455095;28;20056;-82
2021/12/31 18:38:34;;;;;;;13.43;5.95;;;;;;;11.50;84.53;101972.56;10489656;28;20086;-83
2021/12/31 18:43:34;;;;;;;8.18;5.88;;;;;;;11.58;84.08;101984.44;10438393;28;20540;-81
2021/12/31 18:48:39;;;;;;;16.08;6.88;;;;;;;11.60;84.08;101995.00;10437806;28;20060;-79
2021/12/31 18:53:40;;;;;;;10.32;5.13;;;;;;;11.63;83.62;102010.03;10454516;28;20025;-83
2021/12/31 18:58:40;;;;;;;14.27;6.20;;;;;;;11.71;83.46;102003.56;10489228;28;20059;-83
2021/12/31 19:03:41;;;;;;;13.73;6.00;;;;;;;11.71;82.87;102008.78;10454204;28;20392;-82
2021/12/31 19:08:41;;;;;;;10.40;6.25;;;;;;;11.68;82.53;102001.63;10453910;28;20400;-86
2021/12/31 19:13:42;;;;;;;9.40;5.65;;;;;;;11.72;82.32;102010.59;10470139;28;20035;-82
2021/12/31 19:18:42;;;;;;;12.73;4.82;;;;;;;11.74;82.16;102028.22;10454413;28;20029;-83
2021/12/31 19:23:43;;;;;;;9.07;5.40;;;;;;;11.70;82.57;102023.59;10420112;28;20048;-84
2021/12/31 19:28:44;;;;;;;11.50;5.95;;;;;;;11.69;83.32;102036.66;10437013;28;20029;-85
2021/12/31 19:33:45;;;;;;;11.53;6.70;;;;;;;11.69;82.81;102023.53;10437524;28;20564;-83
2021/12/31 19:38:45;;;;;;;14.77;7.25;;;;;;;11.70;83.48;102044.59;10451699;28;20132;-82
2021/12/31 19:43:46;;;;;;;13.63;6.97;;;;;;;11.65;83.47;102051.25;10452573;28;20029;-82
2021/12/31 19:48:46;;;;;;;13.35;7.85;;;;;;;11.68;83.90;102042.69;10469998;28;20491;-81
2021/12/31 19:53:47;;;;;;;11.38;7.45;;;;;;;11.60;84.10;102051.00;10454288;28;20115;-82
2021/12/31 19:58:47;;;;;;;15.90;10.68;;;;;;;11.60;84.08;102063.19;10435314;28;20044;-82
2021/12/31 20:03:48;;;;;;;16.33;9.35;;;;;;;11.59;84.36;102064.00;10469063;28;20045;-81
2021/12/31 20:08:49;;;;;;;16.45;9.27;;;;;;;11.59;84.12;102069.25;10452621;28;20044;-81
2021/12/31 20:13:52;;;;;;;14.38;9.63;;;;;;;11.61;83.87;102059.75;10452996;28;20056;-82
2021/12/31 20:18:52;;;;;;;11.65;7.78;;;;;;;11.64;84.19;102074.78;10452361;28;20037;-81
2021/12/31 20:23:53;;;;;;;16.17;11.00;;;;;;;11.62;84.35;102079.03;10455534;28;20079;-81
2021/12/31 20:28:53;;;;;;;15.48;9.93;;;;;;;11.62;84.17;102079.03;10450823;28;20067;-82
2021/12/31 20:33:54;;;;;;;12.63;8.82;;;;;;;11.53;84.93;102069.78;10454350;28;20052;-82
2021/12/31 20:38:54;;;;;;;11.65;8.65;;;;;;;11.50;84.72;102072.19;10452481;28;20118;-82
2021/12/31 20:43:55;;;;;;;18.73;10.93;;;;;;;11.52;84.67;102067.97;10454391;28;20055;-82
2021/12/31 20:48:55;;;;;;;16.60;10.07;;;;;;;11.50;84.95;102082.69;10452396;28;20029;-81
2021/12/31 20:53:56;;;;;;;12.88;9.10;;;;;;;11.47;84.97;102095.59;10453021;28;20108;-82
2021/12/31 20:58:56;;;;;;;26.00;9.15;;;;;;;11.46;84.87;102088.53;10453665;28;20039;-81
2021/12/31 21:03:57;;;;;;;19.15;7.97;;;;;;;11.51;84.54;102092.38;10492646;28;20060;-82
2021/12/31 21:08:57;;;;;;;12.25;7.85;;;;;;;11.56;84.19;102100.50;10458839;28;20072;-82
2021/12/31 21:13:58;;;;;;;16.27;8.63;;;;;;;11.59;84.16;102095.47;10459690;28;20063;-82
2021/12/31 21:18:58;;;;;;;14.18;7.85;;;;;;;11.64;83.44;102101.00;10460076;28;20040;-82
2021/12/31 21:23:59;;;;;;;17.60;7.43;;;;;;;11.64;83.35;102112.38;10458445;28;20028;-81
2021/12/31 21:28:59;;;;;;;15.48;8.35;;;;;;;11.58;83.62;102123.41;10459876;28;20170;-82
2021/12/31 21:34:00;;;;;;;16.33;10.15;;;;;;;11.59;83.50;102122.59;10459880;28;20130;-82
2021/12/31 21:39:00;;;;;;;20.00;10.05;;;;;;;11.57;83.82;102129.47;10458611;28;20083;-82
2021/12/31 21:44:01;;;;;;;21.88;8.55;;;;;;;11.51;84.26;102131.69;10458529;28;20068;-82
2021/12/31 21:49:01;;;;;;;15.38;7.55;;;;;;;11.55;84.08;102133.69;10491027;28;20120;-82
2021/12/31 21:54:03;;;;;;;10.68;6.93;;;;;;;11.58;83.31;102139.16;10458635;28;20120;-81
2021/12/31 21:59:03;;;;;;;15.57;7.20;;;;;;;11.63;82.83;102139.41;10457705;28;20028;-82
2021/12/31 22:04:04;;;;;;;14.38;7.72;;;;;;;11.63;83.34;102152.53;10457616;28;20035;-82
2021/12/31 22:09:04;;;;;;;15.02;7.07;;;;;;;11.63;83.54;102165.63;10489664;28;20033;-82
2021/12/31 22:14:05;;;;;;;12.40;9.63;;;;;;;11.63;83.36;102170.00;10455958;28;20068;-81
2021/12/31 22:19:05;;;;;;;14.00;6.43;;;;;;;11.65;82.89;102169.28;10458199;28;20033;-82
2021/12/31 22:24:06;;;;;;;23.67;7.75;;;;;;;11.65;83.53;102161.41;10458352;28;20508;-82
2021/12/31 22:29:07;;;;;;;25.13;8.85;;;;;;;11.62;83.34;102176.94;10456178;28;20033;-82
2021/12/31 22:34:07;;;;;;;22.13;10.15;;;;;;;11.66;83.70;102172.81;10457048;28;20075;-82
2021/12/31 22:39:08;;;;;;;14.13;7.85;;;;;;;11.60;83.33;102170.69;10456332;28;20064;-82
2021/12/31 22:44:09;;;;;;;15.98;8.43;;;;;;;11.59;84.04;102163.63;10456782;28;20543;-82
2021/12/31 22:49:09;;;;;;;17.73;8.45;;;;;;;11.58;83.86;102169.69;10455404;28;20120;-82
2021/12/31 22:54:10;;;;;;;13.30;8.00;;;;;;;11.57;83.72;102173.13;10489418;28;20483;-82
2021/12/31 22:59:10;;;;;;;14.35;7.90;;;;;;;11.54;83.98;102173.84;10455150;28;20056;-82